sensor_id;sensor_type;location;lat;lon;timestamp;P1;durP1;ratioP1;P2;durP2;ratioP2
36747;SDS011;22716;51.556;5.080;2022-08-05T00:00:46;7.70;;;3.17;;
36747;SDS011;22716;51.556;5.080;2022-08-05T00:03:15;7.30;;;2.90;;
36747;SDS011;22716;51.556;5.080;2022-08-05T00:05:47;11.15;;;3.08;;
36747;SDS011;22716;51.556;5.080;2022-08-05T00:08:16;6.93;;;3.35;;
36747;SDS011;22716;51.556;5.080;2022-08-05T00:10:45;6.20;;;3.13;;
36747;SDS011;22716;51.556;5.080;2022-08-05T00:13:14;11.02;;;3.38;;
36747;SDS011;22716;51.556;5.080;2022-08-05T00:15:43;6.25;;;2.40;;
36747;SDS011;22716;51.556;5.080;2022-08-05T00:18:11;10.45;;;3.28;;
36747;SDS011;22716;51.556;5.080;2022-08-05T00:20:40;7.43;;;2.97;;
36747;SDS011;22716;51.556;5.080;2022-08-05T00:23:12;10.02;;;3.40;;
36747;SDS011;22716;51.556;5.080;2022-08-05T00:25:43;9.68;;;2.65;;
36747;SDS011;22716;51.556;5.080;2022-08-05T00:28:12;6.70;;;3.00;;
36747;SDS011;22716;51.556;5.080;2022-08-05T00:30:40;6.53;;;3.33;;
36747;SDS011;22716;51.556;5.080;2022-08-05T00:33:10;6.68;;;3.38;;
36747;SDS011;22716;51.556;5.080;2022-08-05T00:35:39;7.00;;;2.73;;
36747;SDS011;22716;51.556;5.080;2022-08-05T00:38:08;10.45;;;3.25;;
36747;SDS011;22716;51.556;5.080;2022-08-05T00:40:45;9.32;;;2.70;;
36747;SDS011;22716;51.556;5.080;2022-08-05T00:43:16;7.45;;;3.08;;
36747;SDS011;22716;51.556;5.080;2022-08-05T00:45:53;10.20;;;3.87;;
36747;SDS011;22716;51.556;5.080;2022-08-05T00:48:23;11.88;;;3.38;;
36747;SDS011;22716;51.556;5.080;2022-08-05T00:53:28;7.68;;;2.92;;
36747;SDS011;22716;51.556;5.080;2022-08-05T00:55:57;7.57;;;3.50;;
36747;SDS011;22716;51.556;5.080;2022-08-05T00:58:30;5.67;;;3.20;;
36747;SDS011;22716;51.556;5.080;2022-08-05T01:00:59;6.78;;;2.58;;
36747;SDS011;22716;51.556;5.080;2022-08-05T01:03:28;7.87;;;2.83;;
36747;SDS011;22716;51.556;5.080;2022-08-05T01:05:57;8.27;;;3.70;;
36747;SDS011;22716;51.556;5.080;2022-08-05T01:08:29;7.33;;;2.87;;
36747;SDS011;22716;51.556;5.080;2022-08-05T01:11:05;7.10;;;2.83;;
36747;SDS011;22716;51.556;5.080;2022-08-05T01:13:40;7.80;;;2.90;;
36747;SDS011;22716;51.556;5.080;2022-08-05T01:16:27;11.10;;;2.45;;
36747;SDS011;22716;51.556;5.080;2022-08-05T01:19:05;8.07;;;3.07;;
36747;SDS011;22716;51.556;5.080;2022-08-05T01:25:04;9.03;;;3.00;;
36747;SDS011;22716;51.556;5.080;2022-08-05T01:28:04;7.53;;;2.72;;
36747;SDS011;22716;51.556;5.080;2022-08-05T01:30:44;11.80;;;3.42;;
36747;SDS011;22716;51.556;5.080;2022-08-05T01:33:18;6.22;;;2.92;;
36747;SDS011;22716;51.556;5.080;2022-08-05T01:35:54;9.30;;;3.65;;
36747;SDS011;22716;51.556;5.080;2022-08-05T01:38:28;10.07;;;3.37;;
36747;SDS011;22716;51.556;5.080;2022-08-05T01:41:00;6.20;;;3.22;;
36747;SDS011;22716;51.556;5.080;2022-08-05T01:43:43;8.82;;;4.30;;
36747;SDS011;22716;51.556;5.080;2022-08-05T01:46:14;10.00;;;3.90;;
36747;SDS011;22716;51.556;5.080;2022-08-05T01:48:44;6.40;;;3.13;;
36747;SDS011;22716;51.556;5.080;2022-08-05T01:51:15;5.97;;;3.70;;
36747;SDS011;22716;51.556;5.080;2022-08-05T01:53:50;5.87;;;3.40;;
36747;SDS011;22716;51.556;5.080;2022-08-05T01:56:21;5.63;;;2.83;;
36747;SDS011;22716;51.556;5.080;2022-08-05T01:59:10;13.05;;;3.53;;
36747;SDS011;22716;51.556;5.080;2022-08-05T02:01:49;9.07;;;3.53;;
36747;SDS011;22716;51.556;5.080;2022-08-05T02:04:36;8.77;;;3.60;;
36747;SDS011;22716;51.556;5.080;2022-08-05T02:07:21;6.00;;;2.87;;
36747;SDS011;22716;51.556;5.080;2022-08-05T02:09:50;11.07;;;3.50;;
36747;SDS011;22716;51.556;5.080;2022-08-05T02:12:20;11.53;;;3.77;;
36747;SDS011;22716;51.556;5.080;2022-08-05T02:15:08;5.37;;;3.00;;
36747;SDS011;22716;51.556;5.080;2022-08-05T02:17:50;12.67;;;3.50;;
36747;SDS011;22716;51.556;5.080;2022-08-05T02:22:55;6.25;;;2.65;;
36747;SDS011;22716;51.556;5.080;2022-08-05T02:25:30;6.95;;;3.20;;
36747;SDS011;22716;51.556;5.080;2022-08-05T02:28:02;7.10;;;2.57;;
36747;SDS011;22716;51.556;5.080;2022-08-05T02:30:38;6.63;;;2.72;;
36747;SDS011;22716;51.556;5.080;2022-08-05T02:33:14;10.13;;;3.53;;
36747;SDS011;22716;51.556;5.080;2022-08-05T02:35:46;9.30;;;3.55;;
36747;SDS011;22716;51.556;5.080;2022-08-05T02:38:24;6.03;;;3.00;;
36747;SDS011;22716;51.556;5.080;2022-08-05T02:41:16;6.33;;;2.83;;
36747;SDS011;22716;51.556;5.080;2022-08-05T02:43:57;5.83;;;3.20;;
36747;SDS011;22716;51.556;5.080;2022-08-05T02:46:49;8.00;;;3.50;;
36747;SDS011;22716;51.556;5.080;2022-08-05T02:49:22;11.10;;;4.07;;
36747;SDS011;22716;51.556;5.080;2022-08-05T02:51:54;6.97;;;3.10;;
36747;SDS011;22716;51.556;5.080;2022-08-05T02:54:24;12.60;;;3.30;;
36747;SDS011;22716;51.556;5.080;2022-08-05T02:56:55;8.97;;;3.80;;
36747;SDS011;22716;51.556;5.080;2022-08-05T02:59:25;7.87;;;3.57;;
36747;SDS011;22716;51.556;5.080;2022-08-05T03:02:03;8.67;;;3.40;;
36747;SDS011;22716;51.556;5.080;2022-08-05T03:04:34;5.40;;;3.10;;
36747;SDS011;22716;51.556;5.080;2022-08-05T03:07:06;11.35;;;3.00;;
36747;SDS011;22716;51.556;5.080;2022-08-05T03:09:37;13.77;;;3.85;;
36747;SDS011;22716;51.556;5.080;2022-08-05T03:12:09;6.90;;;4.07;;
36747;SDS011;22716;51.556;5.080;2022-08-05T03:14:56;7.60;;;3.53;;
36747;SDS011;22716;51.556;5.080;2022-08-05T03:17:27;6.23;;;3.50;;
36747;SDS011;22716;51.556;5.080;2022-08-05T03:19:56;11.53;;;4.00;;
36747;SDS011;22716;51.556;5.080;2022-08-05T03:22:26;7.93;;;3.50;;
36747;SDS011;22716;51.556;5.080;2022-08-05T03:24:56;7.87;;;3.53;;
36747;SDS011;22716;51.556;5.080;2022-08-05T03:27:26;6.80;;;3.23;;
36747;SDS011;22716;51.556;5.080;2022-08-05T03:29:56;10.48;;;3.63;;
36747;SDS011;22716;51.556;5.080;2022-08-05T03:32:28;5.85;;;2.67;;
36747;SDS011;22716;51.556;5.080;2022-08-05T03:34:58;6.27;;;3.60;;
36747;SDS011;22716;51.556;5.080;2022-08-05T03:37:27;7.37;;;3.50;;
36747;SDS011;22716;51.556;5.080;2022-08-05T03:40:15;7.13;;;3.83;;
36747;SDS011;22716;51.556;5.080;2022-08-05T03:42:44;12.63;;;3.53;;
36747;SDS011;22716;51.556;5.080;2022-08-05T03:45:13;9.00;;;3.47;;
36747;SDS011;22716;51.556;5.080;2022-08-05T03:47:45;6.07;;;3.47;;
36747;SDS011;22716;51.556;5.080;2022-08-05T03:50:14;10.40;;;4.30;;
36747;SDS011;22716;51.556;5.080;2022-08-05T03:52:46;8.30;;;4.30;;
36747;SDS011;22716;51.556;5.080;2022-08-05T03:55:23;5.13;;;3.17;;
36747;SDS011;22716;51.556;5.080;2022-08-05T03:58:01;11.52;;;4.57;;
36747;SDS011;22716;51.556;5.080;2022-08-05T04:00:33;7.77;;;4.10;;
36747;SDS011;22716;51.556;5.080;2022-08-05T04:03:25;12.20;;;4.83;;
36747;SDS011;22716;51.556;5.080;2022-08-05T04:06:04;8.57;;;3.93;;
36747;SDS011;22716;51.556;5.080;2022-08-05T04:08:34;8.80;;;5.13;;
36747;SDS011;22716;51.556;5.080;2022-08-05T04:11:06;7.37;;;4.27;;
36747;SDS011;22716;51.556;5.080;2022-08-05T04:13:37;13.17;;;5.40;;
36747;SDS011;22716;51.556;5.080;2022-08-05T04:16:07;7.93;;;4.40;;
36747;SDS011;22716;51.556;5.080;2022-08-05T04:18:40;12.17;;;4.20;;
36747;SDS011;22716;51.556;5.080;2022-08-05T04:21:13;9.50;;;4.50;;
36747;SDS011;22716;51.556;5.080;2022-08-05T04:23:45;8.03;;;4.07;;
36747;SDS011;22716;51.556;5.080;2022-08-05T04:26:16;7.53;;;4.00;;
36747;SDS011;22716;51.556;5.080;2022-08-05T04:28:44;9.30;;;4.70;;
36747;SDS011;22716;51.556;5.080;2022-08-05T04:31:14;6.93;;;4.20;;
36747;SDS011;22716;51.556;5.080;2022-08-05T04:33:46;7.00;;;5.23;;
36747;SDS011;22716;51.556;5.080;2022-08-05T04:36:19;10.87;;;4.90;;
36747;SDS011;22716;51.556;5.080;2022-08-05T04:38:48;10.23;;;4.57;;
36747;SDS011;22716;51.556;5.080;2022-08-05T04:41:19;6.20;;;4.37;;
36747;SDS011;22716;51.556;5.080;2022-08-05T04:43:48;9.75;;;4.60;;
36747;SDS011;22716;51.556;5.080;2022-08-05T04:46:17;9.13;;;4.70;;
36747;SDS011;22716;51.556;5.080;2022-08-05T04:48:48;8.33;;;4.47;;
36747;SDS011;22716;51.556;5.080;2022-08-05T04:51:18;9.90;;;4.50;;
36747;SDS011;22716;51.556;5.080;2022-08-05T04:53:47;12.77;;;4.50;;
36747;SDS011;22716;51.556;5.080;2022-08-05T04:56:16;8.57;;;4.67;;
36747;SDS011;22716;51.556;5.080;2022-08-05T04:58:45;8.83;;;4.13;;
36747;SDS011;22716;51.556;5.080;2022-08-05T05:01:15;8.67;;;4.70;;
36747;SDS011;22716;51.556;5.080;2022-08-05T05:03:44;8.67;;;4.37;;
36747;SDS011;22716;51.556;5.080;2022-08-05T05:06:16;10.93;;;4.27;;
36747;SDS011;22716;51.556;5.080;2022-08-05T05:08:46;11.67;;;3.70;;
36747;SDS011;22716;51.556;5.080;2022-08-05T05:11:18;6.93;;;3.77;;
36747;SDS011;22716;51.556;5.080;2022-08-05T05:13:47;9.50;;;4.28;;
36747;SDS011;22716;51.556;5.080;2022-08-05T05:16:16;10.40;;;4.27;;
36747;SDS011;22716;51.556;5.080;2022-08-05T05:18:44;11.63;;;3.80;;
36747;SDS011;22716;51.556;5.080;2022-08-05T05:21:16;10.70;;;3.60;;
36747;SDS011;22716;51.556;5.080;2022-08-05T05:23:45;7.07;;;3.78;;
36747;SDS011;22716;51.556;5.080;2022-08-05T05:26:14;6.20;;;3.57;;
36747;SDS011;22716;51.556;5.080;2022-08-05T05:28:43;9.37;;;3.83;;
36747;SDS011;22716;51.556;5.080;2022-08-05T05:31:14;9.33;;;5.00;;
36747;SDS011;22716;51.556;5.080;2022-08-05T05:33:43;7.88;;;3.58;;
36747;SDS011;22716;51.556;5.080;2022-08-05T05:36:11;6.30;;;3.90;;
36747;SDS011;22716;51.556;5.080;2022-08-05T05:38:43;7.97;;;3.87;;
36747;SDS011;22716;51.556;5.080;2022-08-05T05:41:12;8.97;;;3.60;;
36747;SDS011;22716;51.556;5.080;2022-08-05T05:43:40;5.97;;;3.27;;
36747;SDS011;22716;51.556;5.080;2022-08-05T05:46:10;9.27;;;3.70;;
36747;SDS011;22716;51.556;5.080;2022-08-05T05:48:39;8.70;;;4.47;;
36747;SDS011;22716;51.556;5.080;2022-08-05T05:51:08;6.60;;;4.07;;
36747;SDS011;22716;51.556;5.080;2022-08-05T05:53:37;6.40;;;3.77;;
36747;SDS011;22716;51.556;5.080;2022-08-05T05:56:09;12.20;;;4.63;;
36747;SDS011;22716;51.556;5.080;2022-08-05T05:58:39;7.50;;;3.43;;
36747;SDS011;22716;51.556;5.080;2022-08-05T06:01:08;9.17;;;4.03;;
36747;SDS011;22716;51.556;5.080;2022-08-05T06:03:37;9.27;;;3.73;;
36747;SDS011;22716;51.556;5.080;2022-08-05T06:06:06;6.63;;;4.13;;
36747;SDS011;22716;51.556;5.080;2022-08-05T06:08:36;5.97;;;2.80;;
36747;SDS011;22716;51.556;5.080;2022-08-05T06:11:05;8.90;;;3.47;;
36747;SDS011;22716;51.556;5.080;2022-08-05T06:13:42;5.60;;;3.30;;
36747;SDS011;22716;51.556;5.080;2022-08-05T06:16:11;5.43;;;2.90;;
36747;SDS011;22716;51.556;5.080;2022-08-05T06:18:40;9.03;;;3.13;;
36747;SDS011;22716;51.556;5.080;2022-08-05T06:21:09;5.83;;;3.30;;
36747;SDS011;22716;51.556;5.080;2022-08-05T06:23:38;8.45;;;3.47;;
36747;SDS011;22716;51.556;5.080;2022-08-05T06:26:07;6.93;;;4.00;;
36747;SDS011;22716;51.556;5.080;2022-08-05T06:28:40;5.03;;;2.60;;
36747;SDS011;22716;51.556;5.080;2022-08-05T06:31:09;7.73;;;2.97;;
36747;SDS011;22716;51.556;5.080;2022-08-05T06:33:38;7.67;;;2.73;;
36747;SDS011;22716;51.556;5.080;2022-08-05T06:36:07;6.23;;;2.60;;
36747;SDS011;22716;51.556;5.080;2022-08-05T06:38:37;7.70;;;2.43;;
36747;SDS011;22716;51.556;5.080;2022-08-05T06:41:06;5.50;;;2.77;;
36747;SDS011;22716;51.556;5.080;2022-08-05T06:43:35;3.63;;;2.47;;
36747;SDS011;22716;51.556;5.080;2022-08-05T06:46:07;4.70;;;1.98;;
36747;SDS011;22716;51.556;5.080;2022-08-05T06:48:36;5.10;;;2.50;;
36747;SDS011;22716;51.556;5.080;2022-08-05T06:51:06;8.30;;;3.17;;
36747;SDS011;22716;51.556;5.080;2022-08-05T06:53:36;5.67;;;3.37;;
36747;SDS011;22716;51.556;5.080;2022-08-05T06:56:05;5.27;;;2.07;;
36747;SDS011;22716;51.556;5.080;2022-08-05T06:58:35;3.33;;;2.40;;
36747;SDS011;22716;51.556;5.080;2022-08-05T07:01:04;5.83;;;2.93;;
36747;SDS011;22716;51.556;5.080;2022-08-05T07:03:36;8.10;;;2.78;;
36747;SDS011;22716;51.556;5.080;2022-08-05T07:06:05;6.13;;;2.80;;
36747;SDS011;22716;51.556;5.080;2022-08-05T07:08:36;8.03;;;2.30;;
36747;SDS011;22716;51.556;5.080;2022-08-05T07:11:05;5.80;;;2.67;;
36747;SDS011;22716;51.556;5.080;2022-08-05T07:13:34;4.22;;;2.38;;
36747;SDS011;22716;51.556;5.080;2022-08-05T07:16:18;4.20;;;1.93;;
36747;SDS011;22716;51.556;5.080;2022-08-05T07:19:00;6.50;;;2.55;;
36747;SDS011;22716;51.556;5.080;2022-08-05T07:21:32;5.97;;;2.47;;
36747;SDS011;22716;51.556;5.080;2022-08-05T07:24:04;6.30;;;2.27;;
36747;SDS011;22716;51.556;5.080;2022-08-05T07:26:33;4.43;;;2.23;;
36747;SDS011;22716;51.556;5.080;2022-08-05T07:29:03;6.33;;;3.03;;
36747;SDS011;22716;51.556;5.080;2022-08-05T07:31:34;5.75;;;2.70;;
36747;SDS011;22716;51.556;5.080;2022-08-05T07:34:04;3.00;;;2.00;;
36747;SDS011;22716;51.556;5.080;2022-08-05T07:36:33;4.00;;;1.80;;
36747;SDS011;22716;51.556;5.080;2022-08-05T07:39:02;8.50;;;2.30;;
36747;SDS011;22716;51.556;5.080;2022-08-05T07:41:37;5.47;;;2.03;;
36747;SDS011;22716;51.556;5.080;2022-08-05T07:44:17;4.97;;;2.00;;
36747;SDS011;22716;51.556;5.080;2022-08-05T07:46:49;5.03;;;1.63;;
36747;SDS011;22716;51.556;5.080;2022-08-05T07:49:18;3.53;;;2.50;;
36747;SDS011;22716;51.556;5.080;2022-08-05T07:51:47;4.85;;;1.52;;
36747;SDS011;22716;51.556;5.080;2022-08-05T07:54:16;6.20;;;1.90;;
36747;SDS011;22716;51.556;5.080;2022-08-05T07:56:46;3.23;;;1.63;;
36747;SDS011;22716;51.556;5.080;2022-08-05T07:59:15;5.57;;;2.10;;
36747;SDS011;22716;51.556;5.080;2022-08-05T08:01:43;3.25;;;1.42;;
36747;SDS011;22716;51.556;5.080;2022-08-05T08:04:15;3.53;;;1.90;;
36747;SDS011;22716;51.556;5.080;2022-08-05T08:06:44;17.10;;;2.13;;
36747;SDS011;22716;51.556;5.080;2022-08-05T08:09:13;3.88;;;1.73;;
36747;SDS011;22716;51.556;5.080;2022-08-05T08:11:42;4.40;;;1.87;;
36747;SDS011;22716;51.556;5.080;2022-08-05T08:14:10;5.77;;;1.93;;
36747;SDS011;22716;51.556;5.080;2022-08-05T08:16:39;6.77;;;2.03;;
36747;SDS011;22716;51.556;5.080;2022-08-05T08:19:09;5.83;;;1.93;;
36747;SDS011;22716;51.556;5.080;2022-08-05T08:21:40;5.05;;;1.20;;
36747;SDS011;22716;51.556;5.080;2022-08-05T08:24:09;4.63;;;1.37;;
36747;SDS011;22716;51.556;5.080;2022-08-05T08:26:39;4.00;;;1.45;;
36747;SDS011;22716;51.556;5.080;2022-08-05T08:29:08;5.63;;;2.03;;
36747;SDS011;22716;51.556;5.080;2022-08-05T08:31:36;7.28;;;1.48;;
36747;SDS011;22716;51.556;5.080;2022-08-05T08:34:06;4.80;;;2.13;;
36747;SDS011;22716;51.556;5.080;2022-08-05T08:36:34;3.80;;;1.52;;
36747;SDS011;22716;51.556;5.080;2022-08-05T08:39:06;5.17;;;1.80;;
36747;SDS011;22716;51.556;5.080;2022-08-05T08:41:35;3.10;;;1.00;;
36747;SDS011;22716;51.556;5.080;2022-08-05T08:46:39;3.90;;;1.27;;
36747;SDS011;22716;51.556;5.080;2022-08-05T08:49:12;4.40;;;1.30;;
36747;SDS011;22716;51.556;5.080;2022-08-05T08:51:46;2.63;;;1.10;;
36747;SDS011;22716;51.556;5.080;2022-08-05T08:54:19;3.45;;;1.20;;
36747;SDS011;22716;51.556;5.080;2022-08-05T08:56:48;5.45;;;1.40;;
36747;SDS011;22716;51.556;5.080;2022-08-05T08:59:17;2.45;;;1.05;;
36747;SDS011;22716;51.556;5.080;2022-08-05T09:01:47;8.50;;;1.98;;
36747;SDS011;22716;51.556;5.080;2022-08-05T09:04:17;2.10;;;1.00;;
36747;SDS011;22716;51.556;5.080;2022-08-05T09:06:46;1.55;;;0.75;;
36747;SDS011;22716;51.556;5.080;2022-08-05T09:09:15;2.50;;;1.10;;
36747;SDS011;22716;51.556;5.080;2022-08-05T09:11:47;2.75;;;1.15;;
36747;SDS011;22716;51.556;5.080;2022-08-05T09:14:16;2.03;;;0.70;;
36747;SDS011;22716;51.556;5.080;2022-08-05T09:16:46;5.32;;;1.20;;
36747;SDS011;22716;51.556;5.080;2022-08-05T09:19:15;3.40;;;0.80;;
36747;SDS011;22716;51.556;5.080;2022-08-05T09:21:44;1.38;;;0.80;;
36747;SDS011;22716;51.556;5.080;2022-08-05T09:24:13;1.70;;;0.87;;
36747;SDS011;22716;51.556;5.080;2022-08-05T09:26:48;4.95;;;1.23;;
36747;SDS011;22716;51.556;5.080;2022-08-05T09:29:24;2.33;;;0.98;;
36747;SDS011;22716;51.556;5.080;2022-08-05T09:32:11;1.58;;;0.82;;
36747;SDS011;22716;51.556;5.080;2022-08-05T09:35:03;4.07;;;1.77;;
36747;SDS011;22716;51.556;5.080;2022-08-05T09:37:48;3.47;;;0.70;;
36747;SDS011;22716;51.556;5.080;2022-08-05T09:40:30;1.80;;;1.15;;
36747;SDS011;22716;51.556;5.080;2022-08-05T09:43:05;2.55;;;1.08;;
36747;SDS011;22716;51.556;5.080;2022-08-05T09:45:35;2.20;;;1.35;;
36747;SDS011;22716;51.556;5.080;2022-08-05T09:48:22;6.07;;;1.13;;
36747;SDS011;22716;51.556;5.080;2022-08-05T09:50:58;2.92;;;0.80;;
36747;SDS011;22716;51.556;5.080;2022-08-05T09:53:45;3.60;;;1.30;;
36747;SDS011;22716;51.556;5.080;2022-08-05T09:56:25;3.85;;;0.90;;
36747;SDS011;22716;51.556;5.080;2022-08-05T09:58:59;2.15;;;0.60;;
36747;SDS011;22716;51.556;5.080;2022-08-05T10:01:31;7.15;;;1.08;;
36747;SDS011;22716;51.556;5.080;2022-08-05T10:04:19;3.20;;;0.82;;
36747;SDS011;22716;51.556;5.080;2022-08-05T10:06:52;3.03;;;1.15;;
36747;SDS011;22716;51.556;5.080;2022-08-05T10:09:25;0.77;;;0.60;;
36747;SDS011;22716;51.556;5.080;2022-08-05T10:12:06;2.45;;;1.00;;
36747;SDS011;22716;51.556;5.080;2022-08-05T10:14:39;1.27;;;0.90;;
36747;SDS011;22716;51.556;5.080;2022-08-05T10:17:11;2.17;;;0.90;;
36747;SDS011;22716;51.556;5.080;2022-08-05T10:19:41;4.88;;;0.95;;
36747;SDS011;22716;51.556;5.080;2022-08-05T10:22:11;1.33;;;0.77;;
36747;SDS011;22716;51.556;5.080;2022-08-05T10:24:41;1.02;;;0.80;;
36747;SDS011;22716;51.556;5.080;2022-08-05T10:27:10;6.05;;;1.00;;
36747;SDS011;22716;51.556;5.080;2022-08-05T10:29:50;3.22;;;1.25;;
36747;SDS011;22716;51.556;5.080;2022-08-05T10:32:19;3.95;;;0.90;;
36747;SDS011;22716;51.556;5.080;2022-08-05T10:34:48;2.67;;;1.00;;
36747;SDS011;22716;51.556;5.080;2022-08-05T10:37:37;2.53;;;1.52;;
36747;SDS011;22716;51.556;5.080;2022-08-05T10:40:09;2.88;;;0.93;;
36747;SDS011;22716;51.556;5.080;2022-08-05T10:42:50;1.83;;;0.85;;
36747;SDS011;22716;51.556;5.080;2022-08-05T10:45:27;1.13;;;0.75;;
36747;SDS011;22716;51.556;5.080;2022-08-05T10:47:57;1.27;;;0.73;;
36747;SDS011;22716;51.556;5.080;2022-08-05T10:53:32;0.80;;;0.40;;
36747;SDS011;22716;51.556;5.080;2022-08-05T10:56:07;2.38;;;0.85;;
36747;SDS011;22716;51.556;5.080;2022-08-05T10:58:46;5.63;;;0.90;;
36747;SDS011;22716;51.556;5.080;2022-08-05T11:01:19;5.28;;;1.20;;
36747;SDS011;22716;51.556;5.080;2022-08-05T11:04:07;3.17;;;0.88;;
36747;SDS011;22716;51.556;5.080;2022-08-05T11:09:44;3.92;;;1.02;;
36747;SDS011;22716;51.556;5.080;2022-08-05T11:15:18;4.13;;;0.93;;
36747;SDS011;22716;51.556;5.080;2022-08-05T11:18:05;3.60;;;1.10;;
36747;SDS011;22716;51.556;5.080;2022-08-05T11:20:37;1.98;;;0.70;;
36747;SDS011;22716;51.556;5.080;2022-08-05T11:23:28;4.67;;;0.87;;
36747;SDS011;22716;51.556;5.080;2022-08-05T11:26:18;6.20;;;1.63;;
36747;SDS011;22716;51.556;5.080;2022-08-05T11:28:52;1.40;;;1.03;;
36747;SDS011;22716;51.556;5.080;2022-08-05T11:31:30;6.78;;;0.90;;
36747;SDS011;22716;51.556;5.080;2022-08-05T11:34:03;3.33;;;1.02;;
36747;SDS011;22716;51.556;5.080;2022-08-05T11:36:42;3.63;;;0.95;;
36747;SDS011;22716;51.556;5.080;2022-08-05T11:39:16;2.85;;;1.23;;
36747;SDS011;22716;51.556;5.080;2022-08-05T11:42:02;2.88;;;0.70;;
36747;SDS011;22716;51.556;5.080;2022-08-05T11:44:36;1.85;;;0.47;;
36747;SDS011;22716;51.556;5.080;2022-08-05T11:49:42;2.67;;;0.60;;
36747;SDS011;22716;51.556;5.080;2022-08-05T11:52:11;2.38;;;0.40;;
36747;SDS011;22716;51.556;5.080;2022-08-05T11:54:43;4.35;;;0.85;;
36747;SDS011;22716;51.556;5.080;2022-08-05T11:57:28;1.15;;;0.50;;
36747;SDS011;22716;51.556;5.080;2022-08-05T11:59:58;3.00;;;0.70;;
36747;SDS011;22716;51.556;5.080;2022-08-05T12:02:27;1.88;;;0.57;;
36747;SDS011;22716;51.556;5.080;2022-08-05T12:05:00;1.85;;;1.05;;
36747;SDS011;22716;51.556;5.080;2022-08-05T12:07:32;3.17;;;0.60;;
36747;SDS011;22716;51.556;5.080;2022-08-05T12:10:05;7.30;;;1.48;;
36747;SDS011;22716;51.556;5.080;2022-08-05T12:12:39;5.07;;;1.55;;
36747;SDS011;22716;51.556;5.080;2022-08-05T12:15:17;2.53;;;0.90;;
36747;SDS011;22716;51.556;5.080;2022-08-05T12:17:47;2.65;;;1.10;;
36747;SDS011;22716;51.556;5.080;2022-08-05T12:20:19;1.77;;;0.88;;
36747;SDS011;22716;51.556;5.080;2022-08-05T12:23:06;5.22;;;0.75;;
36747;SDS011;22716;51.556;5.080;2022-08-05T12:25:47;1.65;;;0.40;;
36747;SDS011;22716;51.556;5.080;2022-08-05T12:28:30;1.63;;;0.57;;
36747;SDS011;22716;51.556;5.080;2022-08-05T12:31:05;2.20;;;1.13;;
36747;SDS011;22716;51.556;5.080;2022-08-05T12:33:34;1.88;;;0.40;;
36747;SDS011;22716;51.556;5.080;2022-08-05T12:36:09;1.35;;;0.47;;
36747;SDS011;22716;51.556;5.080;2022-08-05T12:38:39;4.40;;;0.50;;
36747;SDS011;22716;51.556;5.080;2022-08-05T12:41:10;1.17;;;0.63;;
36747;SDS011;22716;51.556;5.080;2022-08-05T12:43:47;2.78;;;0.50;;
36747;SDS011;22716;51.556;5.080;2022-08-05T12:46:22;1.13;;;0.57;;
36747;SDS011;22716;51.556;5.080;2022-08-05T12:48:57;1.45;;;0.40;;
36747;SDS011;22716;51.556;5.080;2022-08-05T12:51:30;0.88;;;0.40;;
36747;SDS011;22716;51.556;5.080;2022-08-05T12:54:01;2.37;;;0.50;;
36747;SDS011;22716;51.556;5.080;2022-08-05T12:56:31;3.72;;;0.80;;
36747;SDS011;22716;51.556;5.080;2022-08-05T12:59:13;2.70;;;0.80;;
36747;SDS011;22716;51.556;5.080;2022-08-05T13:04:15;0.65;;;0.40;;
36747;SDS011;22716;51.556;5.080;2022-08-05T13:06:47;3.83;;;0.75;;
36747;SDS011;22716;51.556;5.080;2022-08-05T13:09:16;2.05;;;0.80;;
36747;SDS011;22716;51.556;5.080;2022-08-05T13:11:45;2.08;;;1.35;;
36747;SDS011;22716;51.556;5.080;2022-08-05T13:14:19;2.33;;;1.00;;
36747;SDS011;22716;51.556;5.080;2022-08-05T13:16:56;1.60;;;0.60;;
36747;SDS011;22716;51.556;5.080;2022-08-05T13:19:27;4.30;;;0.55;;
36747;SDS011;22716;51.556;5.080;2022-08-05T13:21:59;3.20;;;0.70;;
36747;SDS011;22716;51.556;5.080;2022-08-05T13:24:28;1.17;;;0.70;;
36747;SDS011;22716;51.556;5.080;2022-08-05T13:26:57;2.70;;;0.60;;
36747;SDS011;22716;51.556;5.080;2022-08-05T13:29:26;1.15;;;0.50;;
36747;SDS011;22716;51.556;5.080;2022-08-05T13:31:56;2.88;;;1.30;;
36747;SDS011;22716;51.556;5.080;2022-08-05T13:34:25;6.05;;;1.08;;
36747;SDS011;22716;51.556;5.080;2022-08-05T13:36:54;4.88;;;1.02;;
36747;SDS011;22716;51.556;5.080;2022-08-05T13:39:27;1.00;;;0.63;;
36747;SDS011;22716;51.556;5.080;2022-08-05T13:41:56;2.17;;;0.60;;
36747;SDS011;22716;51.556;5.080;2022-08-05T13:44:25;5.22;;;0.80;;
36747;SDS011;22716;51.556;5.080;2022-08-05T13:46:54;1.25;;;0.82;;
36747;SDS011;22716;51.556;5.080;2022-08-05T13:49:27;3.57;;;0.70;;
36747;SDS011;22716;51.556;5.080;2022-08-05T13:51:56;3.97;;;0.80;;
36747;SDS011;22716;51.556;5.080;2022-08-05T13:54:31;3.65;;;1.05;;
36747;SDS011;22716;51.556;5.080;2022-08-05T13:57:00;1.83;;;0.98;;
36747;SDS011;22716;51.556;5.080;2022-08-05T13:59:29;1.55;;;0.80;;
36747;SDS011;22716;51.556;5.080;2022-08-05T14:01:58;1.12;;;0.40;;
36747;SDS011;22716;51.556;5.080;2022-08-05T14:04:29;3.35;;;2.08;;
36747;SDS011;22716;51.556;5.080;2022-08-05T14:07:12;3.50;;;1.40;;
36747;SDS011;22716;51.556;5.080;2022-08-05T14:09:44;4.40;;;0.95;;
36747;SDS011;22716;51.556;5.080;2022-08-05T14:12:13;3.65;;;0.80;;
36747;SDS011;22716;51.556;5.080;2022-08-05T14:14:43;4.82;;;0.90;;
36747;SDS011;22716;51.556;5.080;2022-08-05T14:17:12;2.97;;;0.80;;
36747;SDS011;22716;51.556;5.080;2022-08-05T14:19:43;2.05;;;0.55;;
36747;SDS011;22716;51.556;5.080;2022-08-05T14:22:12;1.35;;;0.70;;
36747;SDS011;22716;51.556;5.080;2022-08-05T14:24:45;2.38;;;0.80;;
36747;SDS011;22716;51.556;5.080;2022-08-05T14:27:15;1.38;;;0.60;;
36747;SDS011;22716;51.556;5.080;2022-08-05T14:29:45;3.72;;;0.68;;
36747;SDS011;22716;51.556;5.080;2022-08-05T14:32:14;1.67;;;0.60;;
36747;SDS011;22716;51.556;5.080;2022-08-05T14:34:43;4.03;;;2.15;;
36747;SDS011;22716;51.556;5.080;2022-08-05T14:37:12;5.97;;;0.88;;
36747;SDS011;22716;51.556;5.080;2022-08-05T14:39:42;1.88;;;0.85;;
36747;SDS011;22716;51.556;5.080;2022-08-05T14:42:13;1.13;;;0.70;;
36747;SDS011;22716;51.556;5.080;2022-08-05T14:44:43;2.47;;;0.50;;
36747;SDS011;22716;51.556;5.080;2022-08-05T14:47:13;2.10;;;0.40;;
36747;SDS011;22716;51.556;5.080;2022-08-05T14:49:41;2.75;;;0.60;;
36747;SDS011;22716;51.556;5.080;2022-08-05T14:52:10;2.53;;;0.50;;
36747;SDS011;22716;51.556;5.080;2022-08-05T14:54:39;2.85;;;0.50;;
36747;SDS011;22716;51.556;5.080;2022-08-05T14:57:15;3.50;;;0.88;;
36747;SDS011;22716;51.556;5.080;2022-08-05T14:59:45;3.35;;;0.65;;
36747;SDS011;22716;51.556;5.080;2022-08-05T15:02:15;1.38;;;0.45;;
36747;SDS011;22716;51.556;5.080;2022-08-05T15:04:45;2.90;;;0.55;;
36747;SDS011;22716;51.556;5.080;2022-08-05T15:07:14;0.68;;;0.40;;
36747;SDS011;22716;51.556;5.080;2022-08-05T15:09:46;3.88;;;1.13;;
36747;SDS011;22716;51.556;5.080;2022-08-05T15:12:15;0.85;;;0.60;;
36747;SDS011;22716;51.556;5.080;2022-08-05T15:14:44;0.95;;;0.60;;
36747;SDS011;22716;51.556;5.080;2022-08-05T15:17:13;8.25;;;1.38;;
36747;SDS011;22716;51.556;5.080;2022-08-05T15:19:43;2.78;;;0.77;;
36747;SDS011;22716;51.556;5.080;2022-08-05T15:22:13;3.65;;;0.88;;
36747;SDS011;22716;51.556;5.080;2022-08-05T15:24:42;3.30;;;0.73;;
36747;SDS011;22716;51.556;5.080;2022-08-05T15:27:14;1.45;;;0.40;;
36747;SDS011;22716;51.556;5.080;2022-08-05T15:29:43;2.85;;;0.88;;
36747;SDS011;22716;51.556;5.080;2022-08-05T15:32:12;3.50;;;0.60;;
36747;SDS011;22716;51.556;5.080;2022-08-05T15:34:41;2.78;;;0.82;;
36747;SDS011;22716;51.556;5.080;2022-08-05T15:37:11;3.83;;;0.68;;
36747;SDS011;22716;51.556;5.080;2022-08-05T15:39:41;2.75;;;0.80;;
36747;SDS011;22716;51.556;5.080;2022-08-05T15:42:10;3.70;;;0.80;;